Time;durP1;ratioP1;P1;durP2;ratioP2;P2;SDS_P1;SDS_P2;PMS_P1;PMS_P2;Temp;Humidity;BMP_temperature;BMP_pressure;BME280_temperature;BME280_humidity;BME280_pressure;Samples;Min_cycle;Max_cycle;Signal;HPM_P1;HPM_P2
2021/05/10 00:01:05;;;;;;;2.93;2.73;;;17.10;56.70;;;;;;5070851;28;20662;-79
2021/05/10 00:03:32;;;;;;;2.63;2.43;;;17.10;56.70;;;;;;5078506;28;20625;-79
2021/05/10 00:05:58;;;;;;;2.90;2.70;;;17.10;56.70;;;;;;5068585;28;20673;-78
2021/05/10 00:08:26;;;;;;;4.13;2.37;;;17.10;57.00;;;;;;5080659;28;20624;-78
2021/05/10 00:10:53;;;;;;;2.80;2.50;;;17.10;57.10;;;;;;5071134;28;20652;-79
2021/05/10 00:13:19;;;;;;;2.60;2.40;;;17.10;56.40;;;;;;5077730;28;21067;-78
2021/05/10 00:15:46;;;;;;;3.13;2.83;;;17.10;56.60;;;;;;5064016;28;20646;-78
2021/05/10 00:18:13;;;;;;;2.50;2.40;;;17.20;56.80;;;;;;5070953;28;20698;-79
2021/05/10 00:20:42;;;;;;;2.73;2.53;;;17.20;56.90;;;;;;5089104;28;20655;-79
2021/05/10 00:23:09;;;;;;;2.80;2.60;;;17.30;56.70;;;;;;5082628;28;20643;-79
2021/05/10 00:25:37;;;;;;;2.30;2.10;;;17.20;56.80;;;;;;5070912;28;20613;-79
2021/05/10 00:28:04;;;;;;;2.83;2.63;;;17.10;56.90;;;;;;5079803;28;20665;-78
2021/05/10 00:30:31;;;;;;;2.70;2.50;;;17.10;56.90;;;;;;5070132;28;20952;-79
2021/05/10 00:32:58;;;;;;;3.07;2.87;;;17.10;57.30;;;;;;5080605;28;20657;-79
2021/05/10 00:35:25;;;;;;;3.07;2.83;;;17.10;57.80;;;;;;5090359;28;20727;-79
2021/05/10 00:37:52;;;;;;;3.10;2.80;;;17.00;57.90;;;;;;5077454;28;20630;-78
2021/05/10 00:40:20;;;;;;;2.53;2.33;;;17.00;57.90;;;;;;5085761;28;20616;-79
2021/05/10 00:42:47;;;;;;;3.47;3.20;;;16.90;57.80;;;;;;5077925;28;20628;-78
2021/05/10 00:45:14;;;;;;;3.00;2.80;;;16.80;57.80;;;;;;5087290;28;20617;-79
2021/05/10 00:47:41;;;;;;;3.27;3.00;;;16.70;58.30;;;;;;5090978;28;20624;-79
2021/05/10 00:50:09;;;;;;;3.00;2.80;;;16.60;58.10;;;;;;5089477;28;20973;-78
2021/05/10 00:52:36;;;;;;;2.30;2.20;;;16.60;58.30;;;;;;5091296;28;20604;-79
2021/05/10 00:55:06;;;;;;;3.03;2.80;;;16.50;58.60;;;;;;5071814;28;20667;-79
2021/05/10 00:57:36;;;;;;;2.90;2.70;;;16.40;58.50;;;;;;5070351;28;20713;-79
2021/05/10 01:00:04;;;;;;;3.00;2.80;;;16.40;58.50;;;;;;5068499;28;20621;-78
2021/05/10 01:02:31;;;;;;;3.10;2.90;;;16.40;58.40;;;;;;5074173;28;21220;-78
2021/05/10 01:04:59;;;;;;;3.90;2.80;;;16.40;58.60;;;;;;5070708;28;20621;-79
2021/05/10 01:07:26;;;;;;;2.50;2.30;;;16.30;58.40;;;;;;5063198;28;20643;-79
2021/05/10 01:09:54;;;;;;;3.83;2.90;;;16.30;58.30;;;;;;5073249;28;20660;-79
2021/05/10 01:12:22;;;;;;;3.07;2.80;;;16.30;58.20;;;;;;5072247;28;20649;-79
2021/05/10 01:14:50;;;;;;;2.40;2.20;;;16.30;58.20;;;;;;5075029;28;21046;-79
2021/05/10 01:17:17;;;;;;;2.67;2.47;;;16.30;58.00;;;;;;5070321;28;20982;-79
2021/05/10 01:19:44;;;;;;;3.00;2.80;;;16.40;57.50;;;;;;5082847;28;20664;-79
2021/05/10 01:22:15;;;;;;;2.73;2.53;;;16.40;57.40;;;;;;5081061;28;20672;-79
2021/05/10 01:24:44;;;;;;;4.67;3.03;;;16.30;57.30;;;;;;5080569;28;20656;-79
2021/05/10 01:27:11;;;;;;;3.67;3.23;;;16.30;57.30;;;;;;5090500;28;20632;-79
2021/05/10 01:29:39;;;;;;;3.20;2.90;;;16.20;57.20;;;;;;5087826;28;21216;-79
2021/05/10 01:32:08;;;;;;;3.23;2.93;;;16.20;57.40;;;;;;5087655;28;20651;-79
2021/05/10 01:34:37;;;;;;;3.43;3.20;;;16.10;57.50;;;;;;5082268;28;20669;-79
2021/05/10 01:37:04;;;;;;;3.57;3.27;;;16.20;57.70;;;;;;5088011;28;20627;-79
2021/05/10 01:39:32;;;;;;;2.90;2.60;;;16.10;57.70;;;;;;5073354;28;20684;-79
2021/05/10 01:42:06;;;;;;;3.83;2.80;;;16.10;57.60;;;;;;5069944;28;20991;-79
2021/05/10 01:44:35;;;;;;;3.23;2.77;;;16.10;57.60;;;;;;5073244;28;20624;-79
2021/05/10 01:47:05;;;;;;;5.10;2.70;;;16.20;57.40;;;;;;5070119;28;20633;-79
2021/05/10 01:49:35;;;;;;;3.47;2.80;;;16.30;57.10;;;;;;5073637;28;20777;-79
2021/05/10 01:52:02;;;;;;;2.93;2.60;;;16.30;56.80;;;;;;5069874;28;20620;-79
2021/05/10 01:54:30;;;;;;;2.50;2.40;;;16.30;56.60;;;;;;5086528;28;20662;-79
2021/05/10 01:56:57;;;;;;;2.97;2.77;;;16.20;56.90;;;;;;5081146;28;21043;-79
2021/05/10 01:59:25;;;;;;;3.13;2.93;;;16.20;56.90;;;;;;5062494;28;20636;-79
2021/05/10 02:01:53;;;;;;;3.80;2.77;;;16.20;57.40;;;;;;5065639;28;20656;-79
2021/05/10 02:04:21;;;;;;;3.20;2.80;;;16.10;57.70;;;;;;5070581;28;20626;-79
2021/05/10 02:07:01;;;;;;;4.00;2.70;;;16.10;58.00;;;;;;5059259;28;20643;-79
2021/05/10 02:09:29;;;;;;;3.03;2.83;;;16.10;57.70;;;;;;5074386;28;20626;-79
2021/05/10 02:11:58;;;;;;;2.60;2.40;;;16.10;57.60;;;;;;5069848;28;21097;-79
2021/05/10 02:14:26;;;;;;;3.47;3.17;;;16.00;57.90;;;;;;5083891;28;21287;-79
2021/05/10 02:16:57;;;;;;;3.10;2.80;;;16.00;57.90;;;;;;5078580;28;20636;-79
2021/05/10 02:19:24;;;;;;;2.50;2.40;;;16.10;57.70;;;;;;5069533;28;20653;-79
2021/05/10 02:21:51;;;;;;;3.13;2.60;;;16.10;57.90;;;;;;5071478;28;21257;-79
2021/05/10 02:24:21;;;;;;;5.33;2.50;;;16.00;58.00;;;;;;5070161;28;20636;-79
2021/05/10 02:26:48;;;;;;;2.80;2.60;;;16.10;57.90;;;;;;5070072;28;20651;-79
2021/05/10 02:29:15;;;;;;;3.17;2.50;;;15.90;57.10;;;;;;5079791;28;20628;-79
2021/05/10 02:31:42;;;;;;;5.27;2.77;;;15.70;58.10;;;;;;5068283;28;21070;-79
2021/05/10 02:34:09;;;;;;;3.30;3.10;;;15.60;58.80;;;;;;5088500;28;20660;-79
2021/05/10 02:36:35;;;;;;;4.10;3.67;;;15.70;58.70;;;;;;5074395;28;21325;-79
2021/05/10 02:39:01;;;;;;;2.87;2.67;;;15.80;58.50;;;;;;5081613;28;20632;-79
2021/05/10 02:41:28;;;;;;;3.50;3.20;;;15.90;58.30;;;;;;5073676;28;20621;-79
2021/05/10 02:43:54;;;;;;;3.67;3.37;;;16.00;58.30;;;;;;5083510;28;20610;-79
2021/05/10 02:46:21;;;;;;;3.00;2.80;;;16.10;58.30;;;;;;5075727;28;20662;-79
2021/05/10 02:48:48;;;;;;;6.97;3.17;;;16.10;58.00;;;;;;5087267;28;20610;-79
2021/05/10 02:51:14;;;;;;;4.53;2.37;;;16.10;57.50;;;;;;5074707;28;20616;-79
2021/05/10 02:53:41;;;;;;;3.20;3.00;;;16.10;57.40;;;;;;5082053;28;21292;-79
2021/05/10 02:56:07;;;;;;;3.50;3.20;;;16.10;57.80;;;;;;5073237;28;20619;-79
2021/05/10 02:58:34;;;;;;;3.37;2.47;;;16.20;56.80;;;;;;5073883;28;20615;-78
2021/05/10 03:01:00;;;;;;;5.00;2.70;;;16.20;56.00;;;;;;5091878;28;21093;-79
2021/05/10 03:03:26;;;;;;;3.53;2.63;;;16.30;55.70;;;;;;5077807;28;20659;-79
2021/05/10 03:05:54;;;;;;;2.73;2.50;;;16.30;55.70;;;;;;5090652;28;20643;-79
2021/05/10 03:08:20;;;;;;;2.90;2.60;;;16.20;55.80;;;;;;5085070;28;20622;-79
2021/05/10 03:10:46;;;;;;;2.87;2.67;;;16.10;56.10;;;;;;5071678;28;21021;-79
2021/05/10 03:13:13;;;;;;;3.10;2.90;;;15.90;56.60;;;;;;5082588;28;20628;-79
2021/05/10 03:15:40;;;;;;;3.40;3.10;;;16.00;57.60;;;;;;5093254;28;20617;-79
2021/05/10 03:18:06;;;;;;;2.60;2.40;;;15.90;57.30;;;;;;5076687;28;21170;-79
2021/05/10 03:20:33;;;;;;;8.17;2.50;;;15.90;57.60;;;;;;5089057;28;20624;-79
2021/05/10 03:23:00;;;;;;;2.50;2.30;;;15.80;57.90;;;;;;5078043;28;20615;-79
2021/05/10 03:25:26;;;;;;;2.93;2.73;;;15.70;58.00;;;;;;5052221;28;20671;-79
2021/05/10 03:27:53;;;;;;;2.80;2.60;;;15.70;58.10;;;;;;5074486;28;20624;-79
2021/05/10 03:30:21;;;;;;;6.13;3.60;;;15.70;58.20;;;;;;5072156;28;20617;-79
2021/05/10 03:32:48;;;;;;;3.03;2.83;;;15.90;58.00;;;;;;5083653;28;20630;-79
2021/05/10 03:35:15;;;;;;;3.83;3.40;;;16.00;58.30;;;;;;5065960;28;20699;-79
2021/05/10 03:37:43;;;;;;;6.90;3.30;;;15.90;57.10;;;;;;5082079;28;20635;-79
2021/05/10 03:40:12;;;;;;;3.00;2.80;;;15.40;57.30;;;;;;5074916;28;20629;-79
2021/05/10 03:42:39;;;;;;;3.93;3.57;;;15.40;58.00;;;;;;5080576;28;20617;-79
2021/05/10 03:45:07;;;;;;;5.67;4.87;;;15.70;58.40;;;;;;5074736;28;21270;-79
2021/05/10 03:47:39;;;;;;;5.23;4.17;;;15.80;58.10;;;;;;5079835;28;20971;-79
2021/05/10 03:50:10;;;;;;;6.07;5.30;;;16.00;58.10;;;;;;5071862;28;20620;-79
2021/05/10 03:52:37;;;;;;;5.60;4.93;;;16.10;57.90;;;;;;5084001;28;20654;-79
2021/05/10 03:55:05;;;;;;;5.30;4.80;;;16.20;58.10;;;;;;5050232;28;20657;-79
2021/05/10 03:57:32;;;;;;;5.67;4.53;;;16.20;57.30;;;;;;5066050;28;20641;-79
2021/05/10 03:59:58;;;;;;;5.07;4.37;;;16.30;57.60;;;;;;5087959;28;21171;-79
2021/05/10 04:02:27;;;;;;;5.70;4.30;;;16.10;58.10;;;;;;5079630;28;20765;-79
2021/05/10 04:04:58;;;;;;;4.90;4.10;;;16.10;58.60;;;;;;5086260;28;20622;-79
2021/05/10 04:07:37;;;;;;;5.63;4.10;;;16.10;57.90;;;;;;5086157;28;20632;-79
2021/05/10 04:15:38;;;;;;;3.30;3.00;;;16.20;57.60;;;;;;5091081;28;20628;-79
2021/05/10 04:18:05;;;;;;;3.40;3.07;;;16.20;57.00;;;;;;5075775;28;20633;-79
2021/05/10 04:20:32;;;;;;;2.87;2.47;;;16.30;55.80;;;;;;5071077;28;20611;-79
2021/05/10 04:22:58;;;;;;;3.10;2.63;;;16.30;54.50;;;;;;5074584;28;21210;-79
2021/05/10 04:25:25;;;;;;;3.20;3.00;;;16.40;53.90;;;;;;5071421;28;20656;-80
2021/05/10 04:27:52;;;;;;;2.50;2.30;;;16.40;54.30;;;;;;5083017;28;20631;-80
2021/05/10 04:30:20;;;;;;;2.97;2.33;;;16.40;53.30;;;;;;5075771;28;20675;-79
2021/05/10 04:32:47;;;;;;;2.10;1.90;;;16.60;53.00;;;;;;5081732;28;20964;-78
2021/05/10 04:35:13;;;;;;;2.60;2.40;;;16.70;52.80;;;;;;5071775;28;20653;-79
2021/05/10 04:37:40;;;;;;;2.37;2.27;;;16.80;52.10;;;;;;5071938;28;20617;-79
2021/05/10 04:40:07;;;;;;;2.67;2.47;;;16.90;51.90;;;;;;5087676;28;20621;-78
2021/05/10 04:42:34;;;;;;;3.50;2.37;;;17.00;51.50;;;;;;5076924;28;20629;-79
2021/05/10 04:45:01;;;;;;;3.40;2.60;;;17.10;51.70;;;;;;5082557;28;20655;-79
2021/05/10 04:47:36;;;;;;;3.20;2.40;;;17.10;53.60;;;;;;5070854;28;21154;-79
2021/05/10 04:50:03;;;;;;;2.60;2.40;;;17.20;52.60;;;;;;5085077;28;20655;-79
2021/05/10 04:52:30;;;;;;;2.20;2.10;;;17.30;52.40;;;;;;5078555;28;20626;-79
2021/05/10 04:54:56;;;;;;;2.50;2.20;;;17.30;53.20;;;;;;5074532;28;21049;-79
2021/05/10 04:57:22;;;;;;;2.60;1.93;;;17.50;52.60;;;;;;5070506;28;20628;-79
2021/05/10 04:59:49;;;;;;;2.73;2.53;;;17.50;53.40;;;;;;5069935;28;20630;-79
2021/05/10 05:02:15;;;;;;;2.97;2.20;;;17.60;54.20;;;;;;5069245;28;20630;-79
2021/05/10 05:04:42;;;;;;;5.23;2.57;;;17.70;52.00;;;;;;5084208;28;20666;-80
2021/05/10 05:07:09;;;;;;;5.50;2.47;;;17.70;54.30;;;;;;5077128;28;20621;-79
2021/05/10 05:09:35;;;;;;;1.83;1.73;;;17.90;51.50;;;;;;5070959;28;20620;-79
2021/05/10 05:12:02;;;;;;;2.30;2.10;;;17.90;51.10;;;;;;5069916;28;20671;-79
2021/05/10 05:14:28;;;;;;;3.40;1.87;;;18.00;52.60;;;;;;5083845;28;20667;-80
2021/05/10 05:16:55;;;;;;;4.53;2.60;;;18.10;52.70;;;;;;5090974;28;20612;-79
2021/05/10 05:19:21;;;;;;;4.40;2.70;;;18.10;53.50;;;;;;5087248;28;20646;-79
2021/05/10 05:21:48;;;;;;;7.20;2.80;;;18.20;53.00;;;;;;5090952;28;20616;-79
2021/05/10 05:24:14;;;;;;;3.70;2.30;;;18.30;52.20;;;;;;5078308;28;20624;-79
2021/05/10 05:26:41;;;;;;;2.43;2.23;;;18.40;53.10;;;;;;5069489;28;21211;-79
2021/05/10 05:29:08;;;;;;;4.23;2.33;;;18.40;50.90;;;;;;5075711;28;21044;-80
2021/05/10 05:31:34;;;;;;;2.53;2.33;;;18.40;50.30;;;;;;5071515;28;20973;-79
2021/05/10 05:34:01;;;;;;;3.57;2.90;;;18.40;52.70;;;;;;5075354;28;20653;-79
2021/05/10 05:36:28;;;;;;;2.20;2.00;;;18.40;52.60;;;;;;5069139;28;20621;-79
2021/05/10 05:38:56;;;;;;;4.70;2.13;;;18.60;52.40;;;;;;5075977;28;20643;-80
2021/05/10 05:41:22;;;;;;;2.83;2.40;;;18.70;51.90;;;;;;5089584;28;20628;-80
2021/05/10 05:43:48;;;;;;;3.30;3.00;;;18.70;53.60;;;;;;5087957;28;20616;-79
2021/05/10 05:46:19;;;;;;;2.53;2.30;;;18.80;52.70;;;;;;5090133;28;20617;-79
2021/05/10 05:48:46;;;;;;;3.57;2.63;;;18.90;52.70;;;;;;5083421;28;20624;-80
2021/05/10 05:51:13;;;;;;;5.70;2.50;;;18.80;53.70;;;;;;5069984;28;20622;-80
2021/05/10 05:53:40;;;;;;;3.33;2.90;;;18.80;53.70;;;;;;5069976;28;20657;-80
2021/05/10 05:56:07;;;;;;;2.47;2.30;;;18.90;54.60;;;;;;5071267;28;20625;-79
2021/05/10 05:58:33;;;;;;;3.73;2.67;;;19.00;53.60;;;;;;5085918;28;20656;-80
2021/05/10 06:01:00;;;;;;;5.73;3.20;;;18.90;55.60;;;;;;5049567;28;20614;-80
2021/05/10 06:03:27;;;;;;;5.70;3.03;;;18.90;55.50;;;;;;5057698;28;20632;-80
2021/05/10 06:05:53;;;;;;;4.80;3.03;;;19.10;54.80;;;;;;5086572;28;20982;-79
2021/05/10 06:08:20;;;;;;;3.80;3.03;;;19.30;53.50;;;;;;5069992;28;20626;-80
2021/05/10 06:10:47;;;;;;;3.93;3.00;;;19.40;53.90;;;;;;5069435;28;20610;-80
2021/05/10 06:13:15;;;;;;;6.10;2.57;;;19.40;53.10;;;;;;5073816;28;20621;-80
2021/05/10 06:15:41;;;;;;;7.60;3.53;;;19.40;55.30;;;;;;5089758;28;20704;-79
2021/05/10 06:18:08;;;;;;;4.13;3.53;;;19.50;54.70;;;;;;5075845;28;20662;-79
2021/05/10 06:20:34;;;;;;;3.70;2.90;;;19.60;55.30;;;;;;5093190;28;21161;-79
2021/05/10 06:23:02;;;;;;;3.93;3.13;;;19.60;56.10;;;;;;5080421;28;21201;-80
2021/05/10 06:25:29;;;;;;;4.10;3.43;;;19.60;56.90;;;;;;5073699;28;20633;-79
2021/05/10 06:27:56;;;;;;;6.83;2.93;;;19.60;56.40;;;;;;5088454;28;20625;-80
2021/05/10 06:30:24;;;;;;;3.40;3.10;;;19.70;56.90;;;;;;5076234;28;21266;-79
2021/05/10 06:32:51;;;;;;;3.20;2.90;;;19.80;56.90;;;;;;5074296;28;20615;-80
2021/05/10 06:35:18;;;;;;;6.07;3.10;;;19.90;56.80;;;;;;5091645;28;21290;-80
2021/05/10 06:37:45;;;;;;;4.30;2.90;;;20.00;56.10;;;;;;5092379;28;20603;-79
2021/05/10 06:40:12;;;;;;;4.50;2.40;;;20.20;56.00;;;;;;5091723;28;20624;-79
2021/05/10 06:42:39;;;;;;;2.67;2.50;;;20.30;56.10;;;;;;5091799;28;20629;-79
2021/05/10 06:45:07;;;;;;;4.00;3.20;;;20.40;56.00;;;;;;5093543;28;21096;-80
2021/05/10 06:47:34;;;;;;;2.20;1.97;;;20.50;55.30;;;;;;5088774;28;21220;-80
2021/05/10 06:50:02;;;;;;;2.83;2.63;;;20.30;55.50;;;;;;5075455;28;20628;-80
2021/05/10 06:52:28;;;;;;;4.43;2.60;;;20.10;53.10;;;;;;5080956;28;20607;-80
2021/05/10 06:54:54;;;;;;;9.50;2.77;;;20.10;53.20;;;;;;5084279;28;21608;-79
2021/05/10 06:57:21;;;;;;;4.13;2.77;;;20.10;53.00;;;;;;5081149;28;20616;-80
2021/05/10 06:59:47;;;;;;;6.27;1.97;;;20.30;52.40;;;;;;5078113;28;21184;-80
2021/05/10 07:02:14;;;;;;;4.07;2.60;;;20.20;50.10;;;;;;5090232;28;20635;-81
2021/05/10 07:04:41;;;;;;;2.40;2.20;;;20.30;50.10;;;;;;5081705;28;20636;-81
2021/05/10 07:07:07;;;;;;;2.40;2.20;;;20.60;50.80;;;;;;5073674;28;20627;-81
2021/05/10 07:09:34;;;;;;;3.10;2.60;;;20.80;51.20;;;;;;5081720;28;20607;-79
2021/05/10 07:12:00;;;;;;;3.00;2.47;;;21.00;50.70;;;;;;5074855;28;20624;-80
2021/05/10 07:14:27;;;;;;;4.37;2.70;;;21.10;50.30;;;;;;5092108;28;21301;-80
2021/05/10 07:16:53;;;;;;;2.53;2.27;;;21.00;50.40;;;;;;5089794;28;20626;-79
2021/05/10 07:19:20;;;;;;;3.10;2.43;;;21.10;51.20;;;;;;5091629;28;20619;-79
2021/05/10 07:21:47;;;;;;;2.57;2.30;;;20.80;50.00;;;;;;5075039;28;20610;-80
2021/05/10 07:24:14;;;;;;;9.13;2.77;;;20.80;50.60;;;;;;5070815;28;21018;-80
2021/05/10 07:26:40;;;;;;;4.80;2.73;;;21.10;50.90;;;;;;5071884;28;21154;-79
2021/05/10 07:29:07;;;;;;;2.40;2.20;;;21.20;50.60;;;;;;5072859;28;20671;-80
2021/05/10 07:31:33;;;;;;;2.20;2.10;;;21.40;50.60;;;;;;5075931;28;21016;-80
2021/05/10 07:34:00;;;;;;;3.87;2.43;;;21.40;49.80;;;;;;5074504;28;20664;-80
2021/05/10 07:36:26;;;;;;;2.60;2.40;;;21.50;50.70;;;;;;5072675;28;20966;-80
2021/05/10 07:38:54;;;;;;;2.13;2.03;;;21.70;51.60;;;;;;5074092;28;20652;-80
2021/05/10 07:41:20;;;;;;;4.60;2.40;;;21.70;50.90;;;;;;5079912;28;20637;-79
2021/05/10 07:43:46;;;;;;;2.47;2.10;;;21.60;50.20;;;;;;5087071;28;21311;-80
2021/05/10 07:46:13;;;;;;;3.37;2.37;;;21.60;51.00;;;;;;5090293;28;20605;-79
2021/05/10 07:48:39;;;;;;;2.77;2.30;;;21.40;50.90;;;;;;5084864;28;20625;-80
2021/05/10 07:51:06;;;;;;;3.20;2.90;;;21.40;52.40;;;;;;5092535;28;20617;-79
2021/05/10 07:53:33;;;;;;;3.07;2.87;;;21.40;51.10;;;;;;5080391;28;20609;-79
2021/05/10 07:56:07;;;;;;;3.00;2.50;;;21.20;51.20;;;;;;5072443;28;20647;-80
2021/05/10 07:58:35;;;;;;;2.10;1.90;;;21.30;51.70;;;;;;5089850;28;20664;-80
2021/05/10 08:01:10;;;;;;;2.70;2.37;;;21.30;51.40;;;;;;5072958;28;20637;-80
2021/05/10 08:03:36;;;;;;;3.73;2.17;;;21.40;50.70;;;;;;5071047;28;20694;-80
2021/05/10 08:06:03;;;;;;;4.00;2.30;;;21.50;51.50;;;;;;5071979;28;20617;-80
2021/05/10 08:08:30;;;;;;;4.67;2.87;;;21.50;50.90;;;;;;5079467;28;20711;-81
2021/05/10 08:10:56;;;;;;;2.57;2.43;;;21.40;51.60;;;;;;5074983;28;20622;-80
2021/05/10 08:13:24;;;;;;;3.47;2.63;;;21.20;52.20;;;;;;5085701;28;20632;-80
2021/05/10 08:15:50;;;;;;;2.77;2.57;;;21.10;52.50;;;;;;5071906;28;20634;-79
2021/05/10 08:18:16;;;;;;;2.87;2.67;;;21.50;52.80;;;;;;5073336;28;20763;-79
2021/05/10 08:20:45;;;;;;;3.73;2.40;;;21.80;52.80;;;;;;5090312;28;20620;-80
2021/05/10 08:23:13;;;;;;;4.30;2.80;;;22.20;53.40;;;;;;5082142;28;20625;-80
2021/05/10 08:25:40;;;;;;;3.53;3.07;;;22.40;52.80;;;;;;5083974;28;20620;-80
2021/05/10 08:28:06;;;;;;;3.20;2.90;;;22.50;52.90;;;;;;5091808;28;21993;-80
2021/05/10 08:30:34;;;;;;;2.60;2.40;;;23.00;52.50;;;;;;5072951;28;21010;-80
2021/05/10 08:33:02;;;;;;;3.63;3.00;;;23.10;52.40;;;;;;5075165;28;21317;-80
2021/05/10 08:35:29;;;;;;;3.53;3.23;;;22.70;51.60;;;;;;5071403;28;20669;-80
2021/05/10 08:37:56;;;;;;;5.73;2.63;;;22.70;52.30;;;;;;5083613;28;20628;-80
2021/05/10 08:40:22;;;;;;;4.37;3.03;;;22.10;52.10;;;;;;5070730;28;20613;-79
2021/05/10 08:42:49;;;;;;;5.77;2.87;;;21.90;53.60;;;;;;5081711;28;20613;-80
2021/05/10 08:45:19;;;;;;;3.67;2.73;;;22.20;53.30;;;;;;5080565;28;20629;-80
2021/05/10 08:47:48;;;;;;;6.60;2.33;;;21.90;52.30;;;;;;5085596;28;20672;-80
2021/05/10 08:50:14;;;;;;;3.30;3.00;;;21.60;52.90;;;;;;5074636;28;20622;-80
2021/05/10 08:52:42;;;;;;;2.87;2.60;;;22.00;53.80;;;;;;5070972;28;20612;-80
2021/05/10 08:55:13;;;;;;;6.17;2.30;;;22.30;54.10;;;;;;5071581;28;20990;-80
2021/05/10 08:57:40;;;;;;;2.83;2.53;;;22.60;53.80;;;;;;5070934;28;21025;-80
2021/05/10 09:00:10;;;;;;;3.60;2.63;;;22.50;53.90;;;;;;5083830;28;20624;-80
2021/05/10 09:02:37;;;;;;;3.27;3.00;;;22.10;52.80;;;;;;5083536;28;20662;-80
2021/05/10 09:05:14;;;;;;;2.73;2.53;;;22.30;52.80;;;;;;5091161;28;20617;-80
2021/05/10 09:07:41;;;;;;;2.80;2.60;;;22.50;52.80;;;;;;5053935;28;20617;-79
2021/05/10 09:10:09;;;;;;;4.70;3.30;;;22.30;52.90;;;;;;5071309;28;20626;-80
2021/05/10 09:12:44;;;;;;;3.43;3.13;;;22.60;52.60;;;;;;5070857;28;20688;-80
2021/05/10 09:15:22;;;;;;;3.20;2.90;;;22.30;52.20;;;;;;5084426;28;21022;-80
2021/05/10 09:17:51;;;;;;;3.70;3.17;;;21.90;52.60;;;;;;5084137;28;20652;-80
2021/05/10 09:20:22;;;;;;;4.00;2.70;;;21.80;52.20;;;;;;5070141;28;20629;-80
2021/05/10 09:22:54;;;;;;;4.10;3.00;;;21.70;52.80;;;;;;5077075;28;20620;-80
2021/05/10 09:25:27;;;;;;;3.90;3.00;;;21.50;53.10;;;;;;5050596;28;20621;-79
2021/05/10 09:28:09;;;;;;;2.63;2.43;;;21.60;53.30;;;;;;5084336;28;20617;-80
2021/05/10 09:30:36;;;;;;;5.57;3.60;;;22.20;54.30;;;;;;5084625;28;20624;-80
2021/05/10 09:33:02;;;;;;;5.27;3.10;;;22.40;54.00;;;;;;5088125;28;20648;-80
2021/05/10 09:35:31;;;;;;;3.47;3.20;;;21.90;53.70;;;;;;5090815;28;20653;-80
2021/05/10 09:38:05;;;;;;;3.70;3.40;;;21.90;54.30;;;;;;5076974;28;20724;-80
2021/05/10 09:40:46;;;;;;;2.90;2.70;;;21.90;55.40;;;;;;5075011;28;20678;-80
2021/05/10 09:43:14;;;;;;;3.73;3.07;;;21.40;55.60;;;;;;5072374;28;20617;-79
2021/05/10 09:45:46;;;;;;;9.10;3.53;;;21.70;55.50;;;;;;5089795;28;20648;-79
2021/05/10 09:48:29;;;;;;;4.83;3.23;;;21.90;54.70;;;;;;5080133;28;20625;-81
2021/05/10 09:51:01;;;;;;;3.10;2.90;;;22.30;55.30;;;;;;5083060;28;20633;-80
2021/05/10 09:53:36;;;;;;;3.77;3.47;;;22.30;54.20;;;;;;5078609;28;21330;-80
2021/05/10 09:56:04;;;;;;;3.17;2.37;;;22.50;54.30;;;;;;5070759;28;20628;-80
2021/05/10 09:58:40;;;;;;;3.43;3.13;;;22.50;53.50;;;;;;5075154;28;20620;-80
2021/05/10 10:01:07;;;;;;;2.83;2.63;;;22.30;54.40;;;;;;5070007;28;20701;-80
2021/05/10 10:03:37;;;;;;;3.03;2.37;;;22.80;53.80;;;;;;5073628;28;20625;-80
2021/05/10 10:06:07;;;;;;;3.50;2.60;;;23.30;52.90;;;;;;5065913;28;20619;-80
2021/05/10 10:08:34;;;;;;;2.73;2.27;;;23.10;51.90;;;;;;5049966;28;20611;-81
2021/05/10 10:11:01;;;;;;;2.67;2.40;;;23.20;52.30;;;;;;5066713;28;20611;-81
2021/05/10 10:13:28;;;;;;;5.47;2.00;;;22.80;51.50;;;;;;5066483;28;20630;-82
2021/05/10 10:15:57;;;;;;;2.30;1.80;;;22.50;52.40;;;;;;5068373;28;21014;-80
2021/05/10 10:18:26;;;;;;;2.27;1.70;;;22.00;51.30;;;;;;5066936;28;21017;-81
2021/05/10 10:20:54;;;;;;;1.67;1.57;;;21.90;52.40;;;;;;5067781;28;20672;-80
2021/05/10 10:23:23;;;;;;;3.30;1.80;;;22.30;52.30;;;;;;5069183;28;20611;-81
2021/05/10 10:25:50;;;;;;;1.30;1.20;;;22.60;52.20;;;;;;5069173;28;20706;-81
2021/05/10 10:28:19;;;;;;;1.43;1.33;;;22.60;51.10;;;;;;5068675;28;20661;-81
2021/05/10 10:31:01;;;;;;;1.40;1.30;;;22.50;50.50;;;;;;5067673;28;20624;-80
2021/05/10 10:33:47;;;;;;;1.63;1.50;;;23.00;51.40;;;;;;5069921;28;20910;-82
2021/05/10 10:36:19;;;;;;;1.30;1.13;;;22.50;51.00;;;;;;5069658;28;20734;-80
2021/05/10 10:38:46;;;;;;;2.40;1.37;;;22.40;51.10;;;;;;5069552;28;21077;-79
2021/05/10 10:41:25;;;;;;;1.20;1.10;;;22.20;50.50;;;;;;5069028;28;20623;-79
2021/05/10 10:43:52;;;;;;;2.60;1.20;;;22.30;51.00;;;;;;5069180;28;20722;-79
2021/05/10 10:46:24;;;;;;;1.27;0.90;;;22.20;51.10;;;;;;5065147;28;21222;-79
2021/05/10 10:48:52;;;;;;;1.70;1.13;;;22.40;50.70;;;;;;5075453;28;20623;-80
2021/05/10 10:51:19;;;;;;;1.50;1.40;;;22.70;50.80;;;;;;5074873;28;21164;-80
2021/05/10 10:53:50;;;;;;;2.50;1.40;;;22.70;51.30;;;;;;5068564;28;20621;-80
2021/05/10 10:56:17;;;;;;;1.20;1.20;;;22.60;50.90;;;;;;5069742;28;20675;-80
2021/05/10 10:58:47;;;;;;;1.50;1.40;;;22.30;51.30;;;;;;5070263;28;20642;-79
2021/05/10 11:01:19;;;;;;;1.47;1.13;;;22.10;51.30;;;;;;5069690;28;20653;-80
2021/05/10 11:03:47;;;;;;;2.57;1.40;;;21.90;51.40;;;;;;5074120;28;20980;-80
2021/05/10 11:06:14;;;;;;;1.90;1.13;;;22.10;51.60;;;;;;5086869;28;20618;-79
2021/05/10 11:08:49;;;;;;;1.90;1.70;;;21.80;51.20;;;;;;5070917;28;20638;-80
2021/05/10 11:11:41;;;;;;;2.83;1.63;;;21.80;51.90;;;;;;5074551;28;20611;-80
2021/05/10 11:14:14;;;;;;;1.13;1.03;;;21.90;52.20;;;;;;5087248;28;20701;-80
2021/05/10 11:16:47;;;;;;;4.73;2.17;;;21.90;52.20;;;;;;5088928;28;21201;-80
2021/05/10 11:19:34;;;;;;;2.33;1.77;;;22.00;52.20;;;;;;5085818;28;20643;-79
2021/05/10 11:22:03;;;;;;;1.27;0.90;;;22.20;53.10;;;;;;5076244;28;21000;-82
2021/05/10 11:24:33;;;;;;;1.80;1.70;;;22.00;53.00;;;;;;5074258;28;20645;-81
2021/05/10 11:27:02;;;;;;;3.20;1.60;;;21.40;52.10;;;;;;5073856;28;20629;-80
2021/05/10 11:29:49;;;;;;;5.10;1.43;;;21.20;54.10;;;;;;5076001;28;20716;-81
2021/05/10 11:32:33;;;;;;;1.50;1.40;;;21.20;54.10;;;;;;5071886;28;20653;-81
2021/05/10 11:35:25;;;;;;;2.37;1.57;;;21.40;53.90;;;;;;5072099;28;20657;-82
2021/05/10 11:38:07;;;;;;;2.37;1.40;;;21.40;54.40;;;;;;5072743;28;20984;-82
2021/05/10 11:40:35;;;;;;;2.37;1.60;;;21.20;53.60;;;;;;5072008;28;20628;-81
2021/05/10 11:43:38;;;;;;;4.90;2.80;;;21.40;53.70;;;;;;5073972;28;21009;-81
2021/05/10 11:46:04;;;;;;;4.43;1.37;;;21.10;53.20;;;;;;5028488;28;20621;-81
2021/05/10 11:48:40;;;;;;;1.50;1.40;;;20.70;52.70;;;;;;5071389;28;20613;-81
2021/05/10 11:51:23;;;;;;;1.10;1.00;;;20.30;53.60;;;;;;5071639;28;21185;-81
2021/05/10 11:54:01;;;;;;;1.17;1.07;;;20.50;53.40;;;;;;5072418;28;20676;-81
2021/05/10 11:56:30;;;;;;;0.90;0.90;;;20.30;53.00;;;;;;5082237;28;21039;-81
2021/05/10 11:59:00;;;;;;;1.23;1.13;;;20.40;54.10;;;;;;5073304;28;20621;-80
2021/05/10 12:01:35;;;;;;;1.10;1.00;;;20.20;53.30;;;;;;5087958;28;20639;-81
2021/05/10 12:04:16;;;;;;;0.83;0.83;;;20.40;53.70;;;;;;5082038;28;20735;-81
2021/05/10 12:06:43;;;;;;;1.37;1.27;;;20.70;53.90;;;;;;5081917;28;20663;-81
2021/05/10 12:09:33;;;;;;;1.23;1.07;;;20.60;52.40;;;;;;5070520;28;20625;-80
2021/05/10 12:12:02;;;;;;;1.07;1.03;;;20.60;52.80;;;;;;5072253;28;20613;-80
2021/05/10 12:14:29;;;;;;;3.33;1.00;;;20.70;52.50;;;;;;5072313;28;20711;-81
2021/05/10 12:17:04;;;;;;;2.00;1.10;;;20.90;53.40;;;;;;5073007;28;20613;-81
2021/05/10 12:20:04;;;;;;;2.27;1.23;;;20.70;52.80;;;;;;5085699;28;20627;-80
2021/05/10 12:22:32;;;;;;;1.97;1.07;;;20.20;52.90;;;;;;4989511;28;20641;-80
2021/05/10 12:25:08;;;;;;;4.77;1.50;;;20.20;53.40;;;;;;5008869;28;20651;-81
2021/05/10 12:27:41;;;;;;;4.30;1.87;;;20.10;53.80;;;;;;5041545;28;20729;-81
2021/05/10 12:30:19;;;;;;;3.30;2.00;;;20.30;54.30;;;;;;5072039;28;20624;-80
2021/05/10 12:32:49;;;;;;;4.37;1.00;;;20.20;53.70;;;;;;5074254;28;20716;-80
2021/05/10 12:35:21;;;;;;;2.20;1.40;;;20.10;54.40;;;;;;5090065;28;20671;-81
2021/05/10 12:37:50;;;;;;;2.93;1.33;;;20.00;54.30;;;;;;5085508;28;20713;-81
2021/05/10 12:40:18;;;;;;;1.40;1.27;;;20.20;54.60;;;;;;5070414;28;21189;-80
2021/05/10 12:43:03;;;;;;;1.20;1.03;;;20.30;53.70;;;;;;5077622;28;20984;-81
2021/05/10 12:45:29;;;;;;;2.10;1.40;;;20.10;53.90;;;;;;5072854;28;21215;-80
2021/05/10 12:47:56;;;;;;;1.77;1.30;;;19.90;54.90;;;;;;5076850;28;20624;-80
2021/05/10 12:50:38;;;;;;;2.90;1.00;;;19.80;54.50;;;;;;5076765;28;20624;-80
2021/05/10 12:53:05;;;;;;;2.00;0.80;;;20.10;54.40;;;;;;5075275;28;20677;-80
2021/05/10 12:55:34;;;;;;;1.20;1.10;;;20.30;53.70;;;;;;5071252;28;20672;-80
2021/05/10 12:58:17;;;;;;;3.90;0.90;;;19.80;53.90;;;;;;5068901;28;20636;-80
2021/05/10 13:00:44;;;;;;;2.50;1.10;;;20.10;54.40;;;;;;5068319;28;20656;-80
2021/05/10 13:03:27;;;;;;;0.80;0.80;;;20.20;53.30;;;;;;5071584;28;20955;-80